createdAt,value
2023-04-27T00:01:39.013Z,99861.28
2023-04-27T00:04:07.100Z,99854.94
2023-04-27T00:06:34.714Z,99850.31
2023-04-27T00:09:01.509Z,99850.13
2023-04-27T00:11:28.298Z,99853.28
2023-04-27T00:13:55.065Z,99852.78
2023-04-27T00:16:21.832Z,99847.63
2023-04-27T00:18:49.122Z,99854.44
2023-04-27T00:21:15.907Z,99848.63
2023-04-27T00:23:42.625Z,99843.28
2023-04-27T00:26:09.395Z,99845.28
2023-04-27T00:28:36.188Z,99841.28
2023-04-27T00:31:04.230Z,99842.94
2023-04-27T00:33:31.226Z,99838.59
2023-04-27T00:36:01.948Z,99836.28
2023-04-27T00:38:29.800Z,99837.28
2023-04-27T00:41:07.575Z,99838.63
2023-04-27T00:43:42.846Z,99843.28
2023-04-27T00:46:10.428Z,99842.47
2023-04-27T00:48:38.006Z,99841.63
2023-04-27T00:51:05.780Z,99834.28
2023-04-27T00:53:33.433Z,99835.97
2023-04-27T00:56:00.205Z,99838.28
2023-04-27T00:58:27.222Z,99842.44
2023-04-27T01:00:54.315Z,99836.59
2023-04-27T01:03:21.510Z,99833.59
2023-04-27T01:05:48.405Z,99838.63
2023-04-27T01:08:15.214Z,99837.44
2023-04-27T01:10:42.440Z,99850.09
2023-04-27T01:13:09.933Z,99838.09
2023-04-27T01:15:36.955Z,99845.56
2023-04-27T01:18:04.716Z,99842.25
2023-04-27T01:20:32.616Z,99838.28
2023-04-27T01:22:59.881Z,99847.25
2023-04-27T01:25:27.105Z,99843.09
2023-04-27T01:27:56.857Z,99836.94
2023-04-27T01:30:23.670Z,99846.41
2023-04-27T01:32:50.693Z,99846.25
2023-04-27T01:35:17.724Z,99852.25
2023-04-27T01:37:44.610Z,99843.25
2023-04-27T01:40:11.959Z,99842.91
2023-04-27T01:42:38.982Z,99840.22
2023-04-27T01:45:06.400Z,99843.41
2023-04-27T01:47:33.250Z,99853.22
2023-04-27T01:50:00.054Z,99850.91
2023-04-27T01:52:27.631Z,99853.41
2023-04-27T01:54:54.545Z,99848.22
2023-04-27T01:57:21.530Z,99851.88
2023-04-27T01:59:48.300Z,99842.22
2023-04-27T02:02:15.047Z,99845.34
2023-04-27T02:04:43.725Z,99844.16
2023-04-27T02:07:11.214Z,99846.19
2023-04-27T02:09:38.344Z,99848.19
2023-04-27T02:12:05.522Z,99855.66
2023-04-27T02:14:32.395Z,99856.16
2023-04-27T02:16:59.125Z,99843.53
2023-04-27T02:19:25.981Z,99854.84
2023-04-27T02:21:52.846Z,99844.16
2023-04-27T02:24:19.602Z,99851.56
2023-04-27T02:26:46.510Z,99858.84
2023-04-27T02:29:13.622Z,99863.50
2023-04-27T02:31:41.419Z,99865.16
2023-04-27T02:34:08.195Z,99863.34
2023-04-27T02:36:35.027Z,99862.00
2023-04-27T02:39:01.854Z,99872.16
2023-04-27T02:41:32.233Z,99860.16
2023-04-27T02:43:59.081Z,99865.00
2023-04-27T02:46:27.399Z,99874.78
2023-04-27T02:48:55.374Z,99873.75
2023-04-27T02:51:22.273Z,99870.03
2023-04-27T02:53:49.102Z,99874.72
2023-04-27T02:56:16.121Z,99876.09
2023-04-27T02:58:43.319Z,99879.38
2023-04-27T03:01:10.143Z,99879.69
2023-04-27T03:03:37.241Z,99878.00
2023-04-27T03:06:04.231Z,99882.38
2023-04-27T03:08:30.982Z,99879.69
2023-04-27T03:10:57.811Z,99877.84
2023-04-27T03:13:24.538Z,99881.66
2023-04-27T03:15:51.429Z,99890.97
2023-04-27T03:18:18.222Z,99885.00
2023-04-27T03:20:44.990Z,99891.69
2023-04-27T03:23:12.338Z,99888.66
2023-04-27T03:25:39.159Z,99890.97
2023-04-27T03:28:05.895Z,99889.44
2023-04-27T03:30:32.681Z,99881.88
2023-04-27T03:32:59.642Z,99881.25
2023-04-27T03:35:26.480Z,99883.34
2023-04-27T03:37:53.300Z,99886.16
2023-04-27T03:40:20.110Z,99884.69
2023-04-27T03:42:46.841Z,99891.03
2023-04-27T03:45:13.745Z,99885.31
2023-04-27T03:47:40.752Z,99876.66
2023-04-27T03:50:07.816Z,99886.25
2023-04-27T03:52:34.593Z,99876.56
2023-04-27T03:55:01.386Z,99886.50
2023-04-27T03:57:28.096Z,99880.72
2023-04-27T03:59:54.951Z,99876.84
2023-04-27T04:02:22.409Z,99888.78
2023-04-27T04:04:49.437Z,99880.13
2023-04-27T04:07:16.269Z,99888.72
2023-04-27T04:09:44.678Z,99887.63
2023-04-27T04:12:11.439Z,99887.53
2023-04-27T04:14:38.344Z,99880.94
2023-04-27T04:17:05.097Z,99884.91
2023-04-27T04:19:32.015Z,99884.91
2023-04-27T04:21:58.908Z,99884.97
2023-04-27T04:24:25.680Z,99880.63
2023-04-27T04:26:52.718Z,99880.63
2023-04-27T04:29:19.630Z,99880.56
2023-04-27T04:31:46.664Z,99880.22
2023-04-27T04:34:14.748Z,99885.22
2023-04-27T04:36:42.048Z,99883.66
2023-04-27T04:39:08.970Z,99889.50
2023-04-27T04:41:35.762Z,99892.53
2023-04-27T04:44:03.594Z,99891.78
2023-04-27T04:46:31.007Z,99902.09
2023-04-27T04:48:57.795Z,99901.78
2023-04-27T04:51:24.543Z,99909.78
2023-04-27T04:53:51.376Z,99916.97
2023-04-27T04:56:18.204Z,99909.50
2023-04-27T04:58:44.987Z,99916.84
2023-04-27T05:01:11.970Z,99913.81
2023-04-27T05:03:38.913Z,99915.84
2023-04-27T05:06:06.196Z,99911.22
2023-04-27T05:08:33.016Z,99914.19
2023-04-27T05:10:59.748Z,99911.22
2023-04-27T05:13:27.159Z,99910.88
2023-04-27T05:15:54.683Z,99916.88
2023-04-27T05:18:21.455Z,99909.25
2023-04-27T05:20:48.210Z,99910.94
2023-04-27T05:23:14.980Z,99909.09
2023-04-27T05:25:42.067Z,99915.94
2023-04-27T05:28:10.271Z,99917.09
2023-04-27T05:30:37.789Z,99916.31
2023-04-27T05:33:04.942Z,99909.97
2023-04-27T05:35:32.846Z,99904.28
2023-04-27T05:38:00.214Z,99906.66
2023-04-27T05:40:27.256Z,99905.31
2023-04-27T05:42:54.220Z,99906.50
2023-04-27T05:45:22.021Z,99905.63
2023-04-27T05:47:48.996Z,99912.81
2023-04-27T05:50:16.065Z,99910.81
2023-04-27T05:52:42.800Z,99918.28
2023-04-27T05:55:09.821Z,99923.28
2023-04-27T05:57:36.592Z,99916.66
2023-04-27T06:00:09.285Z,99918.44
2023-04-27T06:02:36.236Z,99917.47
2023-04-27T06:05:04.051Z,99915.13
2023-04-27T06:07:30.880Z,99918.19
2023-04-27T06:09:57.737Z,99915.16
2023-04-27T06:12:24.458Z,99918.88
2023-04-27T06:14:51.608Z,99922.44
2023-04-27T06:17:18.379Z,99921.19
2023-04-27T06:19:45.148Z,99927.69
2023-04-27T06:22:11.903Z,99929.69
2023-04-27T06:24:38.805Z,99923.28
2023-04-27T06:27:06.756Z,99929.38
2023-04-27T06:29:33.574Z,99929.44
2023-04-27T06:32:00.462Z,99931.41
2023-04-27T06:34:27.398Z,99930.59
2023-04-27T06:36:54.187Z,99936.38
2023-04-27T06:39:21.085Z,99937.88
2023-04-27T06:41:47.850Z,99934.59
2023-04-27T06:44:14.600Z,99935.91
2023-04-27T06:46:41.416Z,99938.72
2023-04-27T06:49:08.184Z,99940.69
2023-04-27T06:51:34.996Z,99942.75
2023-04-27T06:54:01.760Z,99944.91
2023-04-27T06:56:28.582Z,99946.75
2023-04-27T06:58:55.375Z,99945.09
2023-04-27T07:01:22.155Z,99949.91
2023-04-27T07:03:49.227Z,99946.31
2023-04-27T07:06:16.428Z,99943.66
2023-04-27T07:08:43.390Z,99953.38
2023-04-27T07:11:10.179Z,99947.88
2023-04-27T07:13:36.999Z,99950.75
2023-04-27T07:16:03.990Z,99948.22
2023-04-27T07:18:30.764Z,99956.25
2023-04-27T07:20:58.280Z,99948.13
2023-04-27T07:23:25.003Z,99945.09
2023-04-27T07:25:52.170Z,99949.16
2023-04-27T07:28:19.058Z,99947.03
2023-04-27T07:30:45.976Z,99953.88
2023-04-27T07:33:13.405Z,99951.97
2023-04-27T07:35:40.157Z,99948.81
2023-04-27T07:38:07.757Z,99953.94
2023-04-27T07:40:34.939Z,99943.22
2023-04-27T07:43:01.698Z,99942.09
2023-04-27T07:45:32.094Z,99944.72
2023-04-27T07:48:00.689Z,99946.28
2023-04-27T07:50:30.213Z,99941.72
2023-04-27T07:52:57.545Z,99942.16
2023-04-27T07:55:25.302Z,99945.09
2023-04-27T07:57:57.068Z,99935.91
2023-04-27T08:00:25.678Z,99929.78
2023-04-27T08:02:56.065Z,99932.06
2023-04-27T08:05:23.921Z,99938.19
2023-04-27T08:07:54.538Z,99930.97
2023-04-27T08:10:22.251Z,99931.44
2023-04-27T08:12:49.398Z,99937.34
2023-04-27T08:15:16.148Z,99937.16
2023-04-27T08:17:43.952Z,99939.28
2023-04-27T08:20:11.897Z,99941.28
2023-04-27T08:22:42.208Z,99943.56
2023-04-27T08:25:09.909Z,99940.06
2023-04-27T08:27:40.598Z,99937.75
2023-04-27T08:30:07.979Z,99938.38
2023-04-27T08:32:35.014Z,99938.69
2023-04-27T08:35:01.869Z,99933.53
2023-04-27T08:37:28.604Z,99928.59
2023-04-27T08:39:55.425Z,99925.38
2023-04-27T08:42:22.193Z,99924.41
2023-04-27T08:44:48.970Z,99921.06
2023-04-27T08:47:15.953Z,99915.22
2023-04-27T08:49:43.101Z,99915.47
2023-04-27T08:52:16.561Z,99906.25
2023-04-27T08:54:43.837Z,99908.75
2023-04-27T08:57:11.980Z,99904.25
2023-04-27T08:59:42.579Z,99905.00
2023-04-27T09:02:20.673Z,99907.38
2023-04-27T09:04:48.152Z,99895.59
2023-04-27T09:07:17.443Z,99906.75
2023-04-27T09:09:45.610Z,99892.31
2023-04-27T09:12:19.412Z,99897.91
2023-04-27T09:15:12.599Z,99901.75
2023-04-27T09:17:39.451Z,99897.47
2023-04-27T09:20:13.841Z,99899.41
2023-04-27T09:22:48.082Z,99897.94
2023-04-27T09:25:28.956Z,99898.91
2023-04-27T09:27:56.922Z,99895.50
2023-04-27T09:30:24.110Z,99888.88
2023-04-27T09:33:04.564Z,99891.97
2023-04-27T09:35:33.604Z,99886.16
2023-04-27T09:38:01.289Z,99884.97
2023-04-27T09:40:33.152Z,99889.97
2023-04-27T09:43:04.265Z,99875.28
2023-04-27T09:45:33.684Z,99879.69
2023-04-27T09:48:01.566Z,99886.41
2023-04-27T09:50:28.429Z,99876.47
2023-04-27T09:52:55.317Z,99875.03
2023-04-27T09:55:31.359Z,99873.53
2023-04-27T09:58:36.174Z,99869.38
2023-04-27T10:01:18.396Z,99861.34
2023-04-27T10:04:29.672Z,99871.66
2023-04-27T10:07:05.346Z,99866.78
2023-04-27T10:09:38.231Z,99861.34
2023-04-27T10:12:22.948Z,99868.78
2023-04-27T10:14:54.143Z,99862.53
2023-04-27T10:17:36.733Z,99862.50
2023-04-27T10:20:07.772Z,99859.06
2023-04-27T10:22:42.775Z,99860.09
2023-04-27T10:25:23.030Z,99853.97
2023-04-27T10:27:55.145Z,99852.56
2023-04-27T10:30:24.009Z,99843.78
2023-04-27T10:32:56.479Z,99858.78
2023-04-27T10:36:01.696Z,99848.41
2023-04-27T10:38:31.178Z,99851.53
2023-04-27T10:41:03.552Z,99850.34
2023-04-27T10:43:36.173Z,99837.50
2023-04-27T10:46:16.061Z,99834.66
2023-04-27T10:48:44.507Z,99835.03
2023-04-27T10:51:16.215Z,99833.56
2023-04-27T10:53:43.045Z,99833.34
2023-04-27T10:56:10.602Z,99831.09
2023-04-27T11:01:09.072Z,99830.97
2023-04-27T11:03:36.758Z,99829.84
2023-04-27T11:06:05.949Z,99829.53
2023-04-27T11:08:36.973Z,99833.31
2023-04-27T11:11:06.303Z,99832.34
2023-04-27T11:13:33.842Z,99832.19
2023-04-27T11:16:01.277Z,99827.69
2023-04-27T11:18:33.896Z,99831.56
2023-04-27T11:21:11.217Z,99825.75
2023-04-27T11:23:39.220Z,99827.94
2023-04-27T11:26:26.929Z,99826.94
2023-04-27T11:29:10.417Z,99828.38
2023-04-27T11:31:49.455Z,99828.44
2023-04-27T11:34:22.761Z,99828.59
2023-04-27T11:37:17.480Z,99825.22
2023-04-27T11:39:46.291Z,99823.31
2023-04-27T11:42:21.150Z,99818.31
2023-04-27T11:44:58.821Z,99816.63
2023-04-27T11:47:27.967Z,99809.47
2023-04-27T11:49:57.419Z,99815.59
2023-04-27T11:52:34.492Z,99807.06
2023-04-27T11:55:02.401Z,99804.84
2023-04-27T11:57:32.117Z,99807.81
2023-04-27T12:00:01.774Z,99809.63
2023-04-27T12:02:29.975Z,99796.63
2023-04-27T12:04:58.973Z,99809.13
2023-04-27T12:07:26.010Z,99797.56
2023-04-27T12:09:52.757Z,99801.69
2023-04-27T12:12:22.068Z,99807.41
2023-04-27T12:14:49.671Z,99808.28
2023-04-27T12:17:16.708Z,99799.47
2023-04-27T12:19:43.592Z,99801.38
2023-04-27T12:22:10.425Z,99791.78
2023-04-27T12:24:37.687Z,99790.47
2023-04-27T12:27:05.309Z,99792.56
2023-04-27T12:29:32.438Z,99789.06
2023-04-27T12:32:00.220Z,99795.50
2023-04-27T12:34:28.606Z,99789.59
2023-04-27T12:36:55.672Z,99797.41
2023-04-27T12:39:27.121Z,99792.31
2023-04-27T12:41:55.294Z,99786.59
2023-04-27T12:44:22.431Z,99784.81
2023-04-27T12:46:49.982Z,99781.91
2023-04-27T12:49:17.970Z,99776.19
2023-04-27T12:51:47.104Z,99776.53
2023-04-27T12:54:14.633Z,99778.44
2023-04-27T12:56:42.247Z,99773.34
2023-04-27T12:59:09.910Z,99775.19
2023-04-27T13:01:36.937Z,99777.22
2023-04-27T13:04:06.217Z,99775.22
2023-04-27T13:06:33.407Z,99773.56
2023-04-27T13:09:00.294Z,99777.03
2023-04-27T13:11:27.562Z,99775.09
2023-04-27T13:13:55.360Z,99766.03
2023-04-27T13:16:25.857Z,99767.81
2023-04-27T13:18:53.873Z,99762.19
2023-04-27T13:21:21.279Z,99760.84
2023-04-27T13:23:48.503Z,99758.59
2023-04-27T13:26:16.644Z,99755.22
2023-04-27T13:28:43.622Z,99755.63
2023-04-27T13:31:11.219Z,99754.34
2023-04-27T13:33:42.947Z,99754.88
2023-04-27T13:36:11.474Z,99750.00
2023-04-27T13:38:38.595Z,99745.94
2023-04-27T13:41:05.743Z,99745.78
2023-04-27T13:43:32.822Z,99745.91
2023-04-27T13:46:01.753Z,99739.66
2023-04-27T13:48:29.248Z,99740.41
2023-04-27T13:50:56.394Z,99738.88
2023-04-27T13:53:27.190Z,99729.09
2023-04-27T13:55:55.375Z,99732.53
2023-04-27T13:58:25.603Z,99726.25
2023-04-27T14:00:53.740Z,99739.25
2023-04-27T14:03:21.935Z,99729.25
2023-04-27T14:05:51.184Z,99727.88
2023-04-27T14:08:18.322Z,99723.69
2023-04-27T14:10:46.300Z,99724.84
2023-04-27T14:13:13.542Z,99722.53
2023-04-27T14:15:41.583Z,99713.22
2023-04-27T14:18:09.775Z,99720.63
2023-04-27T14:20:37.663Z,99714.31
2023-04-27T14:23:06.399Z,99718.88
2023-04-27T14:25:34.988Z,99714.47
2023-04-27T14:28:03.174Z,99716.09
2023-04-27T14:30:30.131Z,99719.50
2023-04-27T14:32:57.312Z,99715.59
2023-04-27T14:35:24.834Z,99721.06
2023-04-27T14:37:52.921Z,99710.72
2023-04-27T14:40:20.058Z,99701.59
2023-04-27T14:42:47.391Z,99703.53
2023-04-27T14:45:16.108Z,99705.53
2023-04-27T14:47:43.017Z,99705.25
2023-04-27T14:50:11.851Z,99694.56
2023-04-27T14:52:39.211Z,99695.38
2023-04-27T14:55:07.250Z,99695.59
2023-04-27T14:57:34.290Z,99704.69
2023-04-27T15:00:01.299Z,99703.59
2023-04-27T15:02:28.167Z,99701.09
2023-04-27T15:04:55.076Z,99707.47
2023-04-27T15:07:22.062Z,99704.63
2023-04-27T15:09:48.888Z,99706.50
2023-04-27T15:12:15.606Z,99703.22
2023-04-27T15:14:42.426Z,99703.88
2023-04-27T15:17:09.327Z,99698.88
2023-04-27T15:19:36.285Z,99712.06
2023-04-27T15:22:03.140Z,99704.31
2023-04-27T15:24:30.055Z,99708.16
2023-04-27T15:26:56.844Z,99714.94
2023-04-27T15:29:23.860Z,99705.94
2023-04-27T15:31:51.229Z,99702.88
2023-04-27T15:34:18.317Z,99708.41
2023-04-27T15:36:45.140Z,99706.28
2023-04-27T15:39:12.048Z,99707.31
2023-04-27T15:41:39.018Z,99709.69
2023-04-27T15:44:06.738Z,99708.97
2023-04-27T15:46:33.946Z,99700.66
2023-04-27T15:49:00.759Z,99705.81
2023-04-27T15:51:27.538Z,99708.72
2023-04-27T15:53:54.305Z,99696.78
2023-04-27T15:56:22.008Z,99706.16
2023-04-27T15:58:48.781Z,99700.00
2023-04-27T16:01:15.804Z,99692.19
2023-04-27T16:03:42.853Z,99681.09
2023-04-27T16:06:09.822Z,99682.50
2023-04-27T16:08:36.606Z,99673.91
2023-04-27T16:11:03.425Z,99672.00
2023-04-27T16:13:30.162Z,99673.09
2023-04-27T16:15:57.142Z,99659.19
2023-04-27T16:18:23.956Z,99658.66
2023-04-27T16:20:50.746Z,99654.50
2023-04-27T16:23:20.287Z,99661.56
2023-04-27T16:25:47.078Z,99657.91
2023-04-27T16:28:13.990Z,99657.38
2023-04-27T16:30:40.795Z,99645.38
2023-04-27T16:33:07.663Z,99644.44
2023-04-27T16:35:35.144Z,99635.19
2023-04-27T16:38:01.967Z,99628.47
2023-04-27T16:40:28.805Z,99633.59
2023-04-27T16:42:55.814Z,99638.00
2023-04-27T16:45:22.950Z,99633.66
2023-04-27T16:47:50.189Z,99642.16
2023-04-27T16:50:17.460Z,99632.47
2023-04-27T16:52:44.782Z,99633.59
2023-04-27T16:55:11.864Z,99633.50
2023-04-27T16:57:38.645Z,99642.75
2023-04-27T17:00:06.877Z,99633.34
2023-04-27T17:02:34.024Z,99634.09
2023-04-27T17:05:01.003Z,99633.00
2023-04-27T17:07:32.988Z,99635.78
2023-04-27T17:10:00.296Z,99637.69
2023-04-27T17:12:28.032Z,99632.94
2023-04-27T17:14:55.093Z,99636.38
2023-04-27T17:17:22.096Z,99642.47
2023-04-27T17:19:48.899Z,99645.00
2023-04-27T17:22:16.021Z,99635.84
2023-04-27T17:24:42.763Z,99630.88
2023-04-27T17:27:09.789Z,99626.03
2023-04-27T17:29:37.517Z,99627.84
2023-04-27T17:32:05.284Z,99621.16
2023-04-27T17:34:32.240Z,99623.81
2023-04-27T17:36:58.998Z,99627.50
2023-04-27T17:39:25.959Z,99618.34
2023-04-27T17:41:52.784Z,99618.34
2023-04-27T17:44:19.499Z,99622.13
2023-04-27T17:46:47.998Z,99623.88
2023-04-27T17:49:15.967Z,99631.34
2023-04-27T17:51:46.992Z,99630.88
2023-04-27T17:54:13.815Z,99634.34
2023-04-27T17:56:40.706Z,99635.50
2023-04-27T17:59:07.996Z,99632.09
2023-04-27T18:01:34.954Z,99630.84
2023-04-27T18:04:04.254Z,99631.16
2023-04-27T18:06:32.333Z,99631.16
2023-04-27T18:08:59.206Z,99631.56
2023-04-27T18:11:26.264Z,99629.75
2023-04-27T18:13:54.875Z,99634.63
2023-04-27T18:16:21.884Z,99624.78
2023-04-27T18:18:48.936Z,99625.72
2023-04-27T18:21:15.796Z,99628.94
2023-04-27T18:23:42.941Z,99633.22
2023-04-27T18:26:11.530Z,99637.00
2023-04-27T18:28:40.386Z,99633.81
2023-04-27T18:31:17.275Z,99645.03
2023-04-27T18:33:45.086Z,99637.81
2023-04-27T18:36:11.890Z,99643.25
2023-04-27T18:38:38.937Z,99644.19
2023-04-27T18:41:05.920Z,99649.72
2023-04-27T18:43:35.958Z,99640.66
2023-04-27T18:46:03.718Z,99648.91
2023-04-27T18:48:30.555Z,99649.09
2023-04-27T18:50:57.448Z,99646.25
2023-04-27T18:53:24.311Z,99641.84
2023-04-27T18:55:51.222Z,99646.13
2023-04-27T18:58:17.947Z,99646.97
2023-04-27T19:00:44.683Z,99654.75
2023-04-27T19:03:11.695Z,99660.25
2023-04-27T19:05:43.277Z,99661.78
2023-04-27T19:08:10.598Z,99659.22
2023-04-27T19:10:37.696Z,99659.56
2023-04-27T19:13:04.531Z,99657.56
2023-04-27T19:15:31.307Z,99649.88
2023-04-27T19:18:07.011Z,99649.59
2023-04-27T19:20:37.797Z,99658.03
2023-04-27T19:23:05.630Z,99657.13
2023-04-27T19:25:32.475Z,99662.47
2023-04-27T19:27:59.373Z,99656.91
2023-04-27T19:30:29.586Z,99662.91
2023-04-27T19:32:56.510Z,99655.63
2023-04-27T19:35:24.128Z,99660.00
2023-04-27T19:37:51.521Z,99652.47
2023-04-27T19:40:18.682Z,99649.03
2023-04-27T19:42:45.802Z,99647.91
2023-04-27T19:45:12.781Z,99652.69
2023-04-27T19:47:39.707Z,99650.16
2023-04-27T19:50:07.273Z,99652.50
2023-04-27T19:52:34.192Z,99654.19
2023-04-27T19:55:01.192Z,99648.03
2023-04-27T19:57:31.152Z,99657.16
2023-04-27T19:59:58.094Z,99662.63
2023-04-27T20:02:25.197Z,99659.13
2023-04-27T20:04:52.153Z,99660.03
2023-04-27T20:07:19.344Z,99664.63
2023-04-27T20:09:46.226Z,99665.06
2023-04-27T20:12:24.046Z,99662.22
2023-04-27T20:14:59.910Z,99666.59
2023-04-27T20:17:27.591Z,99660.97
2023-04-27T20:19:56.572Z,99654.41
2023-04-27T20:22:23.620Z,99660.63
2023-04-27T20:24:51.072Z,99652.56
2023-04-27T20:27:17.876Z,99652.47
2023-04-27T20:29:46.773Z,99651.84
2023-04-27T20:32:13.678Z,99657.09
2023-04-27T20:34:40.654Z,99650.03
2023-04-27T20:37:07.740Z,99648.38
2023-04-27T20:39:35.289Z,99649.69
2023-04-27T20:42:02.356Z,99646.56
2023-04-27T20:44:29.207Z,99661.72
2023-04-27T20:46:56.280Z,99649.94
2023-04-27T20:49:31.868Z,99657.19
2023-04-27T20:52:01.876Z,99647.22
2023-04-27T20:54:31.198Z,99645.84
2023-04-27T20:56:57.993Z,99644.16
2023-04-27T20:59:24.778Z,99637.13
2023-04-27T21:01:51.956Z,99635.25
2023-04-27T21:04:19.516Z,99636.44
2023-04-27T21:06:46.673Z,99633.59
2023-04-27T21:09:13.532Z,99637.75
2023-04-27T21:11:40.370Z,99638.09
2023-04-27T21:14:08.085Z,99643.06
2023-04-27T21:16:35.078Z,99638.09
2023-04-27T21:19:05.459Z,99629.84
2023-04-27T21:21:32.424Z,99636.72
2023-04-27T21:24:07.294Z,99626.91
2023-04-27T21:26:46.262Z,99634.63
2023-04-27T21:29:13.175Z,99629.03
2023-04-27T21:31:40.130Z,99631.13
2023-04-27T21:34:07.043Z,99632.00
2023-04-27T21:36:34.165Z,99623.25
2023-04-27T21:39:01.163Z,99617.47
2023-04-27T21:41:28.124Z,99614.53
2023-04-27T21:43:54.985Z,99615.59
2023-04-27T21:46:23.489Z,99611.25
2023-04-27T21:48:50.233Z,99607.19
2023-04-27T21:51:17.090Z,99607.03
2023-04-27T21:53:43.892Z,99607.69
2023-04-27T21:56:10.671Z,99606.28
2023-04-27T21:58:37.490Z,99610.47
2023-04-27T22:01:04.509Z,99613.41
2023-04-27T22:03:31.596Z,99607.81
2023-04-27T22:05:59.737Z,99599.50
2023-04-27T22:08:26.930Z,99610.47
2023-04-27T22:10:53.772Z,99614.03
2023-04-27T22:13:20.587Z,99616.09
2023-04-27T22:15:48.323Z,99605.31
2023-04-27T22:18:15.923Z,99605.69
2023-04-27T22:20:43.299Z,99599.06
2023-04-27T22:23:10.379Z,99596.16
2023-04-27T22:25:37.419Z,99599.94
2023-04-27T22:28:04.470Z,99594.97
2023-04-27T22:30:31.349Z,99599.53
2023-04-27T22:32:58.405Z,99593.94
2023-04-27T22:35:27.700Z,99597.41
2023-04-27T22:38:01.698Z,99592.81
2023-04-27T22:40:28.664Z,99601.09
2023-04-27T22:42:56.263Z,99595.97
2023-04-27T22:45:24.018Z,99604.53
2023-04-27T22:47:51.519Z,99595.81
2023-04-27T22:50:18.536Z,99598.09
2023-04-27T22:52:45.886Z,99592.91
2023-04-27T22:55:13.279Z,99585.47
2023-04-27T22:57:41.978Z,99595.19
2023-04-27T23:00:11.748Z,99587.13
2023-04-27T23:02:40.069Z,99594.75
2023-04-27T23:05:07.646Z,99593.56
2023-04-27T23:07:35.076Z,99595.84
2023-04-27T23:10:03.320Z,99598.69
2023-04-27T23:12:31.686Z,99597.03
2023-04-27T23:15:01.629Z,99591.28
2023-04-27T23:17:31.566Z,99586.50
2023-04-27T23:20:04.029Z,99597.69
2023-04-27T23:22:30.976Z,99594.16
2023-04-27T23:24:57.725Z,99585.06
2023-04-27T23:27:25.219Z,99573.47
2023-04-27T23:29:52.928Z,99571.78
2023-04-27T23:32:19.980Z,99570.94
2023-04-27T23:34:46.888Z,99572.81
2023-04-27T23:37:13.739Z,99573.84
2023-04-27T23:39:40.506Z,99567.25
2023-04-27T23:42:07.278Z,99566.84
2023-04-27T23:44:34.062Z,99568.09
2023-04-27T23:47:00.920Z,99561.06
2023-04-27T23:49:28.352Z,99572.66
2023-04-27T23:51:55.129Z,99566.03
2023-04-27T23:54:21.955Z,99564.78
2023-04-27T23:56:50.631Z,99559.63
2023-04-27T23:59:17.851Z,99556.09
